createdAt,value
2018-03-21T00:01:24.098Z,1.92
2018-03-21T00:03:54.631Z,1.75
2018-03-21T00:06:24.312Z,1.67
2018-03-21T00:08:54.175Z,1.83
2018-03-21T00:11:23.889Z,2.00
2018-03-21T00:13:53.657Z,1.87
2018-03-21T00:16:23.453Z,1.67
2018-03-21T00:18:54.012Z,1.70
2018-03-21T00:21:23.758Z,1.70
2018-03-21T00:23:53.479Z,2.42
2018-03-21T00:26:23.141Z,2.20
2018-03-21T00:28:53.052Z,2.12
2018-03-21T00:31:22.802Z,1.83
2018-03-21T00:33:53.276Z,1.90
2018-03-21T00:36:23.085Z,2.33
2018-03-21T00:38:52.811Z,2.20
2018-03-21T00:41:22.680Z,2.42
2018-03-21T00:43:52.500Z,2.17
2018-03-21T00:46:22.229Z,1.70
2018-03-21T00:48:52.042Z,1.67
2018-03-21T00:51:21.795Z,1.80
2018-03-21T00:53:52.289Z,2.28
2018-03-21T00:56:21.968Z,1.90
2018-03-21T00:58:52.576Z,2.30
2018-03-21T01:01:22.301Z,1.73
2018-03-21T01:03:51.968Z,1.90
2018-03-21T01:06:21.802Z,2.30
2018-03-21T01:08:51.586Z,2.08
2018-03-21T01:11:21.378Z,1.75
2018-03-21T01:13:51.180Z,2.10
2018-03-21T01:16:20.972Z,1.92
2018-03-21T01:18:50.946Z,1.98
2018-03-21T01:21:20.635Z,2.08
2018-03-21T01:23:50.375Z,2.20
2018-03-21T01:26:20.157Z,1.98
2018-03-21T01:28:50.755Z,1.90
2018-03-21T01:31:20.584Z,2.05
2018-03-21T01:33:50.282Z,1.80
2018-03-21T01:36:20.020Z,2.45
2018-03-21T01:38:49.798Z,1.92
2018-03-21T01:41:19.604Z,1.90
2018-03-21T01:43:50.129Z,1.75
2018-03-21T01:46:19.856Z,1.90
2018-03-21T01:48:49.560Z,2.40
2018-03-21T01:51:19.276Z,2.35
2018-03-21T01:53:49.294Z,2.10
2018-03-21T01:56:19.123Z,1.67
2018-03-21T01:58:48.845Z,2.10
2018-03-21T02:01:18.514Z,2.20
2018-03-21T02:03:49.069Z,2.40
2018-03-21T02:06:18.832Z,1.52
2018-03-21T02:08:48.750Z,2.00
2018-03-21T02:11:18.543Z,1.85
2018-03-21T02:13:48.209Z,2.05
2018-03-21T02:16:18.116Z,2.17
2018-03-21T02:18:47.888Z,1.87
2018-03-21T02:21:18.345Z,1.98
2018-03-21T02:23:48.033Z,3.10
2018-03-21T02:26:17.801Z,3.50
2018-03-21T02:28:47.525Z,2.53
2018-03-21T02:31:17.213Z,2.90
2018-03-21T02:33:47.897Z,3.35
2018-03-21T02:36:17.584Z,2.45
2018-03-21T02:38:48.147Z,2.78
2018-03-21T02:41:17.912Z,2.92
2018-03-21T02:43:47.649Z,2.75
2018-03-21T02:46:17.381Z,2.90
2018-03-21T02:48:47.942Z,2.62
2018-03-21T02:51:17.787Z,3.10
2018-03-21T02:53:47.464Z,2.47
2018-03-21T02:56:17.977Z,3.00
2018-03-21T02:58:48.068Z,2.70
2018-03-21T03:01:17.862Z,2.85
2018-03-21T03:03:48.427Z,3.00
2018-03-21T03:06:19.301Z,2.62
2018-03-21T03:08:49.094Z,2.80
2018-03-21T03:11:18.860Z,3.30
2018-03-21T03:13:49.368Z,2.50
2018-03-21T03:16:19.024Z,2.72
2018-03-21T03:18:48.814Z,3.08
2018-03-21T03:21:18.563Z,2.47
2018-03-21T03:23:48.392Z,2.92
2018-03-21T03:26:18.101Z,2.90
2018-03-21T03:28:48.560Z,2.67
2018-03-21T03:31:18.228Z,2.50
2018-03-21T03:33:47.981Z,3.08
2018-03-21T03:36:17.758Z,3.17
2018-03-21T03:38:48.320Z,2.60
2018-03-21T03:41:18.210Z,2.90
2018-03-21T03:43:48.011Z,3.17
2018-03-21T03:46:17.692Z,3.28
2018-03-21T03:48:47.813Z,4.00
2018-03-21T03:51:17.720Z,3.65
2018-03-21T03:53:49.512Z,3.65
2018-03-21T03:56:19.780Z,3.87
2018-03-21T03:58:49.678Z,4.30
2018-03-21T04:01:19.482Z,4.90
2018-03-21T04:03:50.828Z,4.05
2018-03-21T04:06:20.717Z,4.60
2018-03-21T04:08:50.558Z,4.87
2018-03-21T04:11:20.603Z,4.70
2018-03-21T04:13:50.370Z,5.62
2018-03-21T04:16:20.066Z,5.50
2018-03-21T04:18:50.540Z,5.80
2018-03-21T04:21:20.336Z,8.32
2018-03-21T04:23:50.090Z,8.68
2018-03-21T04:26:19.811Z,11.25
2018-03-21T04:28:49.806Z,12.20
2018-03-21T04:31:19.488Z,12.73
2018-03-21T04:33:49.410Z,18.37
2018-03-21T04:36:19.108Z,20.60
2018-03-21T04:38:48.876Z,24.35
2018-03-21T04:41:19.423Z,25.42
2018-03-21T04:43:49.974Z,19.98
2018-03-21T04:46:19.733Z,22.98
2018-03-21T04:48:49.707Z,20.45
2018-03-21T04:51:20.241Z,22.65
2018-03-21T04:53:50.847Z,20.90
2018-03-21T04:56:20.612Z,21.70
2018-03-21T04:58:51.167Z,20.83
2018-03-21T05:01:20.917Z,17.67
2018-03-21T05:03:50.772Z,16.75
2018-03-21T05:06:20.515Z,16.98
2018-03-21T05:08:51.141Z,16.37
2018-03-21T05:11:20.917Z,20.75
2018-03-21T05:13:50.959Z,16.60
2018-03-21T05:16:20.727Z,20.12
2018-03-21T05:18:50.575Z,21.12
2018-03-21T05:21:20.245Z,20.70
2018-03-21T05:23:49.991Z,20.25
2018-03-21T05:26:19.780Z,20.60
2018-03-21T05:28:49.677Z,18.25
2018-03-21T05:31:19.356Z,19.73
2018-03-21T05:33:49.364Z,18.65
2018-03-21T05:36:19.100Z,19.40
2018-03-21T05:38:49.588Z,21.23
2018-03-21T05:41:19.341Z,30.33
2018-03-21T05:43:49.107Z,30.25
2018-03-21T05:46:19.589Z,29.67
2018-03-21T05:48:49.328Z,26.37
2018-03-21T05:51:19.144Z,30.45
2018-03-21T05:53:48.812Z,28.60
2018-03-21T05:56:18.576Z,27.67
2018-03-21T05:58:48.321Z,31.50
2018-03-21T06:01:18.095Z,30.00
2018-03-21T06:03:47.834Z,32.63
2018-03-21T06:06:17.688Z,25.92
2018-03-21T06:08:47.482Z,25.12
2018-03-21T06:11:17.414Z,23.70
2018-03-21T06:13:47.130Z,26.08
2018-03-21T06:16:16.820Z,26.58
2018-03-21T06:18:47.349Z,27.58
2018-03-21T06:21:17.076Z,25.37
2018-03-21T06:23:53.306Z,26.20
2018-03-21T06:26:23.128Z,25.08
2018-03-21T06:28:52.809Z,19.87
2018-03-21T06:31:22.514Z,19.83
2018-03-21T06:33:53.086Z,16.17
2018-03-21T06:36:22.837Z,15.77
2018-03-21T06:38:52.601Z,14.02
2018-03-21T06:41:23.067Z,13.77
2018-03-21T06:43:52.859Z,16.48
2018-03-21T06:46:23.313Z,21.15
2018-03-21T06:48:53.245Z,18.80
2018-03-21T06:51:22.965Z,19.27
2018-03-21T06:53:52.671Z,19.50
2018-03-21T06:56:23.180Z,23.60
2018-03-21T06:58:52.896Z,19.50
2018-03-21T07:01:22.652Z,27.20
2018-03-21T07:03:53.252Z,24.83
2018-03-21T07:06:22.940Z,27.98
2018-03-21T07:08:52.673Z,24.55
2018-03-21T07:11:22.391Z,27.65
2018-03-21T07:15:06.390Z,23.45
2018-03-21T07:17:36.128Z,18.48
2018-03-21T07:20:06.734Z,17.25
2018-03-21T07:22:36.454Z,17.70
2018-03-21T07:25:06.307Z,14.77
2018-03-21T07:27:36.123Z,13.52
2018-03-21T07:30:06.129Z,17.15
2018-03-21T07:32:36.032Z,13.80
2018-03-21T07:35:06.097Z,10.98
2018-03-21T07:37:36.038Z,14.60
2018-03-21T07:40:06.152Z,14.43
2018-03-21T07:42:35.984Z,12.88
2018-03-21T07:45:05.792Z,11.68
2018-03-21T07:47:35.581Z,14.38
2018-03-21T07:50:06.115Z,14.00
2018-03-21T07:52:36.598Z,13.07
2018-03-21T07:55:06.393Z,14.75
2018-03-21T07:57:36.088Z,16.00
2018-03-21T08:00:05.944Z,14.45
2018-03-21T08:02:35.860Z,14.82
2018-03-21T08:05:05.781Z,15.30
2018-03-21T08:07:35.500Z,12.40
2018-03-21T08:10:05.300Z,13.07
2018-03-21T08:12:35.811Z,12.57
2018-03-21T08:15:05.872Z,10.85
2018-03-21T08:17:36.398Z,12.00
2018-03-21T08:20:06.231Z,12.93
2018-03-21T08:22:35.986Z,12.30
2018-03-21T08:25:05.900Z,9.88
2018-03-21T08:27:35.737Z,14.32
2018-03-21T08:30:05.516Z,11.60
2018-03-21T08:32:35.282Z,11.18
2018-03-21T08:35:05.240Z,11.60
2018-03-21T08:37:34.986Z,11.07
2018-03-21T08:40:04.801Z,10.95
2018-03-21T08:42:34.724Z,15.00
2018-03-21T08:45:04.590Z,16.08
2018-03-21T08:47:34.391Z,13.93
2018-03-21T08:50:04.214Z,11.03
2018-03-21T08:52:33.998Z,12.40
2018-03-21T08:55:03.813Z,13.00
2018-03-21T08:57:33.562Z,11.80
2018-03-21T09:00:03.563Z,10.87
2018-03-21T09:02:33.289Z,12.27
2018-03-21T09:05:03.024Z,10.17
2018-03-21T09:07:32.822Z,12.87
2018-03-21T09:10:02.560Z,12.90
2018-03-21T09:12:32.382Z,10.73
2018-03-21T09:15:02.107Z,8.63
2018-03-21T09:17:31.845Z,8.10
2018-03-21T09:20:01.589Z,7.90
2018-03-21T09:22:31.441Z,9.00
2018-03-21T09:25:01.196Z,8.88
2018-03-21T09:27:31.023Z,9.85
2018-03-21T09:30:00.675Z,8.87
2018-03-21T09:32:30.566Z,9.35
2018-03-21T09:35:00.316Z,10.43
2018-03-21T09:37:30.099Z,10.57
2018-03-21T09:39:59.919Z,11.15
2018-03-21T09:42:29.720Z,11.95
2018-03-21T09:45:00.357Z,10.70
2018-03-21T09:47:31.048Z,12.45
2018-03-21T09:50:00.788Z,13.52
2018-03-21T09:52:30.501Z,11.80
2018-03-21T09:55:00.351Z,11.60
2018-03-21T09:57:30.112Z,12.27
2018-03-21T09:59:59.794Z,11.57
2018-03-21T10:02:29.519Z,11.43
2018-03-21T10:04:59.266Z,11.50
2018-03-21T10:07:29.777Z,10.77
2018-03-21T10:09:59.583Z,9.23
2018-03-21T10:12:29.384Z,8.97
2018-03-21T10:14:59.237Z,10.47
2018-03-21T10:17:29.268Z,9.07
2018-03-21T10:19:59.005Z,8.70
2018-03-21T10:22:28.944Z,12.23
2018-03-21T10:24:59.439Z,10.47
2018-03-21T10:27:29.249Z,10.17
2018-03-21T10:29:58.935Z,10.87
2018-03-21T10:32:28.679Z,9.87
2018-03-21T10:34:58.525Z,9.20
2018-03-21T10:37:28.221Z,8.63
2018-03-21T10:39:58.037Z,8.13
2018-03-21T10:42:27.902Z,8.57
2018-03-21T10:44:57.891Z,8.73
2018-03-21T10:47:28.356Z,8.83
2018-03-21T10:49:58.329Z,8.23
2018-03-21T10:52:38.777Z,8.40
2018-03-21T10:54:57.808Z,9.43
2018-03-21T10:57:27.564Z,9.60
2018-03-21T10:59:57.401Z,10.43
2018-03-21T11:02:31.179Z,10.30
2018-03-21T11:05:00.928Z,10.90
2018-03-21T11:07:30.699Z,10.50
2018-03-21T11:10:01.185Z,10.10
2018-03-21T11:12:30.977Z,11.10
2018-03-21T11:15:00.745Z,10.43
2018-03-21T11:17:30.640Z,9.90
2018-03-21T11:20:00.531Z,9.83
2018-03-21T11:22:31.164Z,9.60
2018-03-21T11:25:01.655Z,14.37
2018-03-21T11:27:31.341Z,12.60
2018-03-21T11:30:01.913Z,9.77
2018-03-21T11:32:31.609Z,8.30
2018-03-21T11:35:01.349Z,8.93
2018-03-21T11:37:31.320Z,9.33
2018-03-21T11:40:01.153Z,10.37
2018-03-21T11:42:31.066Z,11.50
2018-03-21T11:45:00.864Z,10.77
2018-03-21T11:47:31.721Z,10.23
2018-03-21T11:50:01.499Z,9.13
2018-03-21T11:52:31.237Z,7.83
2018-03-21T11:55:00.973Z,11.27
2018-03-21T11:57:30.708Z,16.33
2018-03-21T12:00:00.435Z,11.53
2018-03-21T12:02:30.203Z,11.27
2018-03-21T12:05:00.705Z,13.67
2018-03-21T12:07:30.848Z,12.50
2018-03-21T12:10:00.810Z,9.40
2018-03-21T12:12:30.577Z,7.87
2018-03-21T12:15:00.473Z,7.07
2018-03-21T12:17:30.232Z,7.40
2018-03-21T12:19:59.994Z,6.80
2018-03-21T12:22:29.841Z,13.90
2018-03-21T12:24:59.588Z,15.03
2018-03-21T12:27:29.304Z,15.77
2018-03-21T12:29:59.080Z,9.87
2018-03-21T12:32:29.568Z,7.37
2018-03-21T12:34:59.452Z,8.50
2018-03-21T12:37:29.209Z,9.90
2018-03-21T12:39:58.913Z,7.80
2018-03-21T12:42:28.727Z,8.40
2018-03-21T12:44:58.560Z,6.97
2018-03-21T12:47:28.299Z,7.23
2018-03-21T12:49:58.112Z,7.57
2018-03-21T12:52:27.760Z,7.27
2018-03-21T12:54:57.624Z,7.20
2018-03-21T12:57:28.205Z,8.87
2018-03-21T12:59:57.985Z,8.53
2018-03-21T13:02:28.604Z,8.57
2018-03-21T13:04:58.496Z,7.10
2018-03-21T13:07:28.617Z,6.87
2018-03-21T13:09:58.322Z,7.50
2018-03-21T13:12:28.148Z,7.53
2018-03-21T13:14:57.906Z,7.33
2018-03-21T13:17:27.663Z,6.63
2018-03-21T13:19:57.425Z,7.47
2018-03-21T13:22:27.304Z,6.47
2018-03-21T13:24:57.030Z,6.77
2018-03-21T13:27:26.892Z,6.00
2018-03-21T13:29:56.713Z,5.93
2018-03-21T13:32:26.437Z,5.83
2018-03-21T13:34:56.216Z,7.27
2018-03-21T13:37:26.024Z,5.90
2018-03-21T13:39:55.792Z,7.30
2018-03-21T13:42:26.296Z,7.33
2018-03-21T13:44:56.069Z,9.40
2018-03-21T13:47:25.782Z,8.73
2018-03-21T13:49:55.604Z,10.30
2018-03-21T13:52:25.382Z,9.37
2018-03-21T13:54:55.076Z,6.97
2018-03-21T13:57:24.922Z,6.63
2018-03-21T13:59:54.639Z,6.00
2018-03-21T14:02:24.409Z,5.20
2018-03-21T14:04:55.018Z,5.87
2018-03-21T14:07:24.752Z,5.27
2018-03-21T14:09:54.527Z,5.53
2018-03-21T14:12:24.240Z,5.70
2018-03-21T14:14:53.960Z,5.30
2018-03-21T14:17:23.845Z,6.23
2018-03-21T14:19:53.620Z,5.53
2018-03-21T14:22:23.736Z,5.60
2018-03-21T14:24:53.587Z,5.43
2018-03-21T14:27:23.493Z,6.07
2018-03-21T14:29:53.365Z,5.97
2018-03-21T14:32:23.082Z,6.23
2018-03-21T14:34:53.089Z,5.70
2018-03-21T14:37:22.970Z,5.40
2018-03-21T14:39:53.386Z,4.73
2018-03-21T14:42:23.158Z,5.00
2018-03-21T14:44:53.180Z,4.40
2018-03-21T14:47:22.906Z,4.83
2018-03-21T14:49:52.744Z,4.20
2018-03-21T14:52:22.677Z,4.93
2018-03-21T14:54:52.676Z,4.87
2018-03-21T14:57:22.392Z,5.60
2018-03-21T14:59:52.183Z,4.80
2018-03-21T15:02:22.196Z,5.07
2018-03-21T15:04:52.027Z,6.60
2018-03-21T15:07:21.903Z,6.77
2018-03-21T15:09:51.908Z,6.20
2018-03-21T15:12:23.282Z,5.90
2018-03-21T15:14:53.177Z,4.60
2018-03-21T15:17:23.684Z,4.27
2018-03-21T15:19:53.501Z,5.57
2018-03-21T15:22:23.226Z,5.33
2018-03-21T15:24:54.016Z,5.43
2018-03-21T15:27:24.628Z,7.37
2018-03-21T15:29:54.385Z,6.03
2018-03-21T15:32:24.116Z,5.87
2018-03-21T15:34:53.834Z,5.43
2018-03-21T15:37:23.800Z,5.63
2018-03-21T15:39:53.474Z,5.17
2018-03-21T15:42:24.142Z,4.90
2018-03-21T15:44:55.326Z,5.03
2018-03-21T15:47:25.086Z,5.03
2018-03-21T15:49:55.593Z,6.10
2018-03-21T15:52:25.453Z,5.73
2018-03-21T15:54:56.114Z,6.30
2018-03-21T15:57:25.924Z,6.03
2018-03-21T15:59:56.460Z,5.33
2018-03-21T16:02:27.013Z,5.53
2018-03-21T16:04:56.772Z,5.70
2018-03-21T16:07:27.310Z,5.67
2018-03-21T16:09:57.290Z,6.17
2018-03-21T16:12:28.020Z,5.40
2018-03-21T16:14:57.806Z,6.27
2018-03-21T16:17:27.520Z,5.13
2018-03-21T16:19:58.441Z,5.60
2018-03-21T16:22:28.922Z,5.43
2018-03-21T16:24:58.889Z,5.60
2018-03-21T16:27:29.379Z,6.30
2018-03-21T16:29:59.415Z,7.17
2018-03-21T16:32:29.431Z,5.70
2018-03-21T16:34:59.192Z,5.90
2018-03-21T16:37:29.044Z,6.60
2018-03-21T16:39:59.677Z,7.67
2018-03-21T16:42:30.227Z,7.53
2018-03-21T16:45:01.194Z,7.33
2018-03-21T16:47:30.875Z,5.47
2018-03-21T16:50:00.589Z,5.00
2018-03-21T16:52:30.430Z,5.50
2018-03-21T16:55:00.263Z,5.30
2018-03-21T16:57:30.863Z,5.97
2018-03-21T17:00:00.609Z,5.43
2018-03-21T17:02:30.340Z,5.47
2018-03-21T17:05:00.020Z,5.17
2018-03-21T17:07:29.888Z,4.77
2018-03-21T17:09:59.608Z,5.63
2018-03-21T17:12:29.345Z,5.80
2018-03-21T17:14:59.043Z,5.73
2018-03-21T17:17:28.790Z,5.47
2018-03-21T17:19:59.329Z,5.27
2018-03-21T17:22:29.989Z,4.60
2018-03-21T17:24:59.735Z,5.00
2018-03-21T17:27:30.465Z,4.87
2018-03-21T17:30:00.217Z,4.43
2018-03-21T17:32:30.189Z,4.93
2018-03-21T17:34:59.842Z,5.23
2018-03-21T17:37:29.572Z,6.27
2018-03-21T17:39:59.339Z,5.10
2018-03-21T17:42:29.809Z,5.67
2018-03-21T17:44:59.595Z,5.50
2018-03-21T17:47:29.309Z,5.27
2018-03-21T17:49:59.170Z,5.33
2018-03-21T17:52:28.919Z,5.30
2018-03-21T17:54:58.642Z,5.13
2018-03-21T17:57:29.069Z,5.43
2018-03-21T17:59:58.743Z,6.17
2018-03-21T18:02:29.196Z,5.67
2018-03-21T18:04:59.671Z,5.30
2018-03-21T18:07:29.436Z,5.93
2018-03-21T18:09:59.124Z,5.20
2018-03-21T18:12:28.868Z,6.57
2018-03-21T18:14:58.529Z,6.53
2018-03-21T18:17:28.772Z,6.37
2018-03-21T18:19:58.538Z,5.90
2018-03-21T18:22:28.230Z,6.20
2018-03-21T18:24:58.080Z,6.97
2018-03-21T18:27:27.744Z,6.93
2018-03-21T18:29:58.463Z,5.73
2018-03-21T18:32:28.174Z,5.57
2018-03-21T18:34:57.893Z,7.43
2018-03-21T18:37:27.534Z,6.33
2018-03-21T18:39:58.091Z,7.50
2018-03-21T18:42:28.605Z,7.50
2018-03-21T18:44:58.321Z,7.70
2018-03-21T18:47:28.181Z,6.97
2018-03-21T18:49:57.935Z,6.30
2018-03-21T18:52:27.606Z,6.33
2018-03-21T18:54:58.105Z,6.53
2018-03-21T18:57:27.823Z,6.77
2018-03-21T18:59:57.539Z,6.33
2018-03-21T19:02:27.366Z,6.30
2018-03-21T19:04:57.027Z,6.63
2018-03-21T19:07:27.044Z,7.27
2018-03-21T19:09:56.767Z,6.30
2018-03-21T19:12:26.486Z,6.37
2018-03-21T19:14:56.236Z,6.47
2018-03-21T19:17:26.709Z,5.83
2018-03-21T19:19:56.538Z,7.43
2018-03-21T19:22:26.264Z,6.90
2018-03-21T19:24:55.977Z,6.33
2018-03-21T19:27:25.730Z,6.03
2018-03-21T19:29:55.465Z,5.90
2018-03-21T19:32:25.121Z,6.07
2018-03-21T19:34:54.769Z,6.03
2018-03-21T19:37:24.862Z,6.47
2018-03-21T19:39:54.714Z,7.93
2018-03-21T19:42:24.550Z,6.20
2018-03-21T19:44:54.670Z,6.73
2018-03-21T19:47:24.323Z,7.17
2018-03-21T19:49:54.151Z,7.00
2018-03-21T19:52:23.830Z,7.23
2018-03-21T19:54:53.481Z,7.13
2018-03-21T19:57:23.200Z,6.80
2018-03-21T19:59:52.984Z,7.63
2018-03-21T20:02:22.673Z,7.53
2018-03-21T20:04:53.309Z,7.20
2018-03-21T20:07:23.063Z,7.37
2018-03-21T20:09:52.776Z,8.03
2018-03-21T20:12:22.475Z,8.50
2018-03-21T20:14:53.100Z,8.07
2018-03-21T20:17:22.903Z,8.40
2018-03-21T20:19:52.741Z,9.67
2018-03-21T20:22:22.634Z,9.33
2018-03-21T20:24:52.444Z,8.57
2018-03-21T20:27:22.408Z,10.27
2018-03-21T20:29:52.306Z,11.57
2018-03-21T20:32:22.222Z,9.47
2018-03-21T20:34:52.033Z,10.43
2018-03-21T20:37:22.602Z,9.37
2018-03-21T20:39:52.294Z,9.73
2018-03-21T20:42:22.995Z,10.87
2018-03-21T20:44:52.823Z,11.00
2018-03-21T20:47:22.709Z,10.83
2018-03-21T20:49:52.476Z,9.93
2018-03-21T20:52:22.279Z,10.47
2018-03-21T20:54:52.025Z,9.60
2018-03-21T20:57:21.743Z,10.53
2018-03-21T20:59:51.490Z,11.57
2018-03-21T21:02:22.088Z,12.20
2018-03-21T21:04:51.899Z,12.50
2018-03-21T21:07:21.770Z,13.03
2018-03-21T21:09:51.623Z,12.30
2018-03-21T21:12:21.528Z,12.90
2018-03-21T21:14:52.061Z,12.27
2018-03-21T21:17:21.878Z,10.83
2018-03-21T21:19:51.813Z,10.17
2018-03-21T21:22:21.646Z,10.87
2018-03-21T21:24:52.219Z,10.23
2018-03-21T21:27:21.977Z,9.73
2018-03-21T21:29:51.756Z,10.87
2018-03-21T21:32:21.473Z,11.10
2018-03-21T21:34:51.213Z,11.30
2018-03-21T21:37:21.060Z,11.37
2018-03-21T21:39:50.923Z,9.80
2018-03-21T21:42:21.514Z,9.73
2018-03-21T21:44:51.349Z,10.13
2018-03-21T21:47:21.061Z,9.73
2018-03-21T21:49:50.838Z,11.30
2018-03-21T21:52:20.622Z,11.80
2018-03-21T21:54:50.731Z,9.93
2018-03-21T21:57:20.509Z,9.23
2018-03-21T21:59:51.234Z,9.63
2018-03-21T22:02:21.035Z,9.43
2018-03-21T22:04:51.602Z,10.30
2018-03-21T22:07:21.391Z,9.30
2018-03-21T22:09:51.121Z,9.50
2018-03-21T22:12:24.151Z,8.90
2018-03-21T22:14:53.906Z,9.83
2018-03-21T22:17:23.714Z,9.10
2018-03-21T22:19:54.197Z,9.57
2018-03-21T22:22:23.945Z,9.43
2018-03-21T22:24:53.792Z,10.67
2018-03-21T22:27:24.303Z,9.43
2018-03-21T22:29:54.085Z,11.87
2018-03-21T22:32:24.057Z,11.37
2018-03-21T22:34:54.215Z,9.67
2018-03-21T22:37:25.560Z,9.63
2018-03-21T22:39:56.034Z,9.20
2018-03-21T22:42:26.645Z,9.43
2018-03-21T22:44:56.587Z,9.77
2018-03-21T22:47:27.919Z,10.00
2018-03-21T22:49:58.229Z,9.00
2018-03-21T22:52:30.127Z,10.83
2018-03-21T22:55:00.670Z,10.63
2018-03-21T22:57:30.579Z,9.63
2018-03-21T23:00:01.153Z,10.67
2018-03-21T23:02:31.470Z,9.77
2018-03-21T23:05:01.232Z,9.73
2018-03-21T23:07:30.985Z,10.03
2018-03-21T23:10:00.791Z,10.57
2018-03-21T23:12:30.633Z,11.13
2018-03-21T23:15:00.505Z,10.50
2018-03-21T23:17:31.102Z,10.67
2018-03-21T23:20:00.836Z,11.17
2018-03-21T23:22:30.704Z,12.30
2018-03-21T23:25:01.484Z,12.10
2018-03-21T23:27:31.207Z,12.43
2018-03-21T23:30:00.938Z,12.17
2018-03-21T23:32:30.733Z,11.77
2018-03-21T23:35:00.473Z,11.60
2018-03-21T23:37:30.210Z,12.10
2018-03-21T23:40:00.049Z,13.43
2018-03-21T23:42:29.766Z,11.57
2018-03-21T23:44:59.489Z,12.77
2018-03-21T23:47:29.288Z,13.17
2018-03-21T23:49:59.282Z,12.37
2018-03-21T23:52:29.897Z,11.60
2018-03-21T23:54:59.609Z,12.33
2018-03-21T23:57:30.185Z,12.77
